Terminal Aerodrome Forecast
Issued by NWS Dallas/Fort Worth, TX

Home | Current Version | Previous Version | Text Only | Print | Product List | Glossary On
Versions: 1 2 3 4 5 6 7 8 9 10 11 12 13 14 15 16 17 18 19 20 21 22 23 24 25 26 27 28 29 30 31 32
000
FTUS44 KFWD 200900 AAA
TAFDFW
TAF AMD
KDFW 200906Z 2009/2112 18012KT P6SM BKN110 BKN180
     FM201600 18016KT P6SM SCT040 SCT140
     FM210100 17012KT P6SM FEW250=

USA.gov is the U.S. government's official web portal to all federal, state and local government web resources and services.